Главная страница
METAR-TAF:

METAR-TAF

Аэропорты :

Синоп, Турция

широта: 42-00-57N, долгота: 035-03-59E, высота над уровнем моря: 7 м

Текущие метеонаблюдения

Эта сводка был подготовлена 35 минут назад, в 06:50 UTC
Ветер 6 Узел от северо-северо-восточный
Температура 16°C
Влажность 51%
Давление 1015 hPa
Видимость 10 км и более
Нет облачности ниже 1500 м, и нет кучево-дождевой облачности

METAR: LTCM 290650Z 03006KT CAVOK 16/06 Q1015

Время: 10:25 (07:25 UTC)

Прогноз

Эта сводка был подготовлена 2 часа и 45 минут назад, в 04:40 UTC
Прогноз действительный с 29-го 06 UTC до 29-го 15 UTC
Ветер 9 Узел от восточный
Видимость 10 км и более
Нет облачности ниже 1500 м, и нет кучево-дождевой облачности

TAF: LTCM 290440Z 2906/2915 09009KT CAVOK

Метеонаблюдения и прогнозы для более 4000 аэропортов (сводки METAR и TAF).

Имеющиеся станции представлены на карте желтыми и красными точками.

Чтобы увидеть название станции, наведите на нее мышь.

Затем щелкните, чтобы увидеть метеонаблюдения и метеопрогнозы.

Управление картой: чтобы увеличить масштаб, щелкните зеленые кнопки с черным крестиком; чтобы уменьшить масштаб, щелкните зеленую кнопку с тире; для просмотра соседних карт щелкайте зеленые стрелки.


METAR-TAF: